createdAt,value
2023-05-09T00:01:17.968Z,101234.69
2023-05-09T00:03:44.547Z,101231.25
2023-05-09T00:06:11.607Z,101223.47
2023-05-09T00:08:38.026Z,101224.38
2023-05-09T00:11:04.582Z,101219.28
2023-05-09T00:13:30.947Z,101216.06
2023-05-09T00:15:58.493Z,101220.44
2023-05-09T00:18:24.941Z,101212.97
2023-05-09T00:20:51.304Z,101203.13
2023-05-09T00:23:17.868Z,101200.63
2023-05-09T00:25:44.403Z,101185.09
2023-05-09T00:28:10.849Z,101162.59
2023-05-09T00:30:37.218Z,101154.91
2023-05-09T00:33:03.847Z,101134.06
2023-05-09T00:35:32.246Z,101104.50
2023-05-09T00:37:59.379Z,101072.38
2023-05-09T00:40:26.113Z,101040.94
2023-05-09T00:42:52.488Z,101034.00
2023-05-09T00:45:18.874Z,100985.06
2023-05-09T00:47:45.536Z,100937.16
2023-05-09T00:50:12.034Z,100873.53
2023-05-09T00:52:38.396Z,100786.25
2023-05-09T00:55:05.605Z,100714.78
2023-05-09T00:57:31.942Z,100681.97
2023-05-09T00:59:58.480Z,100628.69
2023-05-09T01:02:25.106Z,100606.38
2023-05-09T01:04:51.478Z,100573.22
2023-05-09T01:07:42.780Z,100538.34
2023-05-09T01:10:31.025Z,100503.47
2023-05-09T01:13:06.734Z,100493.75
2023-05-09T01:15:54.013Z,100467.44
2023-05-09T01:18:47.476Z,100461.28
2023-05-09T01:21:21.993Z,100446.06
2023-05-09T01:23:57.614Z,100424.13
2023-05-09T01:26:42.237Z,100418.03
2023-05-09T01:29:11.643Z,100412.00
2023-05-09T01:31:38.730Z,100405.09
2023-05-09T01:34:05.250Z,100384.16
2023-05-09T01:36:33.138Z,100374.06
2023-05-09T01:38:59.652Z,100347.22
2023-05-09T01:41:26.796Z,100342.72
2023-05-09T01:43:53.226Z,100350.38
2023-05-09T01:46:19.629Z,100331.25
2023-05-09T01:48:46.052Z,100327.91
2023-05-09T01:51:13.252Z,100308.47
2023-05-09T01:53:39.820Z,100291.03
2023-05-09T01:56:06.830Z,100279.69
2023-05-09T01:58:33.726Z,100286.72
2023-05-09T02:01:00.471Z,100276.22
2023-05-09T02:03:27.186Z,100288.47
2023-05-09T02:05:54.050Z,100287.72
2023-05-09T02:08:21.223Z,100249.41
2023-05-09T02:10:49.003Z,100235.69
2023-05-09T02:13:15.800Z,100222.72
2023-05-09T02:15:42.299Z,100216.63
2023-05-09T02:18:08.667Z,100195.94
2023-05-09T02:20:36.133Z,100197.66
2023-05-09T02:23:02.511Z,100189.00
2023-05-09T02:25:28.863Z,100174.25
2023-05-09T02:27:55.594Z,100173.47
2023-05-09T02:30:25.052Z,100177.88
2023-05-09T02:33:07.262Z,100156.25
2023-05-09T02:35:33.608Z,100148.47
2023-05-09T02:38:00.258Z,100142.44
2023-05-09T02:40:27.416Z,100140.81
2023-05-09T02:42:53.785Z,100117.31
2023-05-09T02:45:20.170Z,100102.56
2023-05-09T02:47:46.578Z,100101.75
2023-05-09T02:50:13.044Z,100087.00
2023-05-09T02:52:39.463Z,100078.28
2023-05-09T02:55:07.390Z,100055.91
2023-05-09T02:57:33.911Z,100042.91
2023-05-09T03:00:00.272Z,100040.31
2023-05-09T03:02:26.876Z,100026.41
2023-05-09T03:04:53.298Z,100016.06
2023-05-09T03:07:19.647Z,100008.44
2023-05-09T03:09:46.038Z,99988.50
2023-05-09T03:12:12.374Z,99978.88
2023-05-09T03:14:38.799Z,99978.03
2023-05-09T03:17:05.170Z,99962.72
2023-05-09T03:19:32.366Z,99921.00
2023-05-09T03:21:58.722Z,99912.13
2023-05-09T03:24:26.507Z,99906.81
2023-05-09T03:26:52.854Z,99907.81
2023-05-09T03:29:19.210Z,99898.16
2023-05-09T03:31:46.419Z,99891.19
2023-05-09T03:34:15.115Z,99880.00
2023-05-09T03:36:43.566Z,99867.84
2023-05-09T03:39:10.691Z,99846.19
2023-05-09T03:41:37.217Z,99849.59
2023-05-09T03:44:05.379Z,99849.59
2023-05-09T03:46:31.828Z,99830.50
2023-05-09T03:48:58.268Z,99820.03
2023-05-09T03:51:24.933Z,99814.81
2023-05-09T03:53:51.476Z,99810.41
2023-05-09T03:56:17.807Z,99814.81
2023-05-09T03:58:44.161Z,99754.28
2023-05-09T04:01:10.918Z,99703.91
2023-05-09T04:03:37.761Z,99685.47
2023-05-09T04:06:04.875Z,99675.53
2023-05-09T04:08:32.384Z,99682.56
2023-05-09T04:10:58.741Z,99678.72
2023-05-09T04:13:25.404Z,99684.72
2023-05-09T04:15:51.994Z,99661.09
2023-05-09T04:18:18.390Z,99661.09
2023-05-09T04:20:44.833Z,99638.47
2023-05-09T04:23:11.419Z,99623.84
2023-05-09T04:25:37.750Z,99595.19
2023-05-09T04:28:04.349Z,99602.72
2023-05-09T04:30:30.790Z,99607.72
2023-05-09T04:33:00.074Z,99598.34
2023-05-09T04:35:27.087Z,99583.88
2023-05-09T04:37:53.661Z,99593.28
2023-05-09T04:40:20.033Z,99602.25
2023-05-09T04:42:46.471Z,99599.13
2023-05-09T04:45:13.217Z,99601.13
2023-05-09T04:47:40.124Z,99620.22
2023-05-09T04:50:07.920Z,99621.16
2023-05-09T04:52:34.289Z,99616.69
2023-05-09T04:55:00.982Z,99634.81
2023-05-09T04:57:27.417Z,99623.97
2023-05-09T04:59:53.787Z,99665.63
2023-05-09T05:02:21.214Z,99678.41
2023-05-09T05:04:47.782Z,99650.41
2023-05-09T05:07:14.348Z,99640.66
2023-05-09T05:09:40.846Z,99636.19
2023-05-09T05:12:09.821Z,99696.91
2023-05-09T05:14:36.464Z,99680.16
2023-05-09T05:17:02.853Z,99720.00
2023-05-09T05:19:29.222Z,99729.25
2023-05-09T05:21:55.831Z,99763.81
2023-05-09T05:24:22.173Z,99722.28
2023-05-09T05:26:48.514Z,99731.69
2023-05-09T05:29:15.107Z,99756.53
2023-05-09T05:31:41.479Z,99802.38
2023-05-09T05:34:07.827Z,99880.50
2023-05-09T05:36:34.365Z,99859.25
2023-05-09T05:39:00.743Z,99868.44
2023-05-09T05:41:27.109Z,99848.28
2023-05-09T05:43:54.526Z,99848.78
2023-05-09T05:46:21.085Z,99911.53
2023-05-09T05:48:47.520Z,99966.00
2023-05-09T05:51:13.911Z,100025.91
2023-05-09T05:53:40.842Z,100076.13
2023-05-09T05:56:07.409Z,100100.28
2023-05-09T05:58:33.970Z,100099.13
2023-05-09T06:01:00.762Z,100181.91
2023-05-09T06:03:27.299Z,100226.16
2023-05-09T06:05:53.807Z,100242.59
2023-05-09T06:08:20.170Z,100238.00
2023-05-09T06:10:46.682Z,100276.47
2023-05-09T06:13:13.139Z,100271.88
2023-05-09T06:15:39.529Z,100309.88
2023-05-09T06:18:05.939Z,100323.53
2023-05-09T06:20:32.639Z,100265.53
2023-05-09T06:22:59.023Z,100262.69
2023-05-09T06:25:25.365Z,100294.53
2023-05-09T06:27:51.753Z,100233.00
2023-05-09T06:30:26.148Z,100227.88
2023-05-09T06:32:54.688Z,100250.63
2023-05-09T06:35:21.303Z,100329.97
2023-05-09T06:37:48.796Z,100434.69
2023-05-09T06:40:16.047Z,100449.28
2023-05-09T06:42:42.419Z,100455.38
2023-05-09T06:45:09.118Z,100456.13
2023-05-09T06:47:35.801Z,100481.25
2023-05-09T06:50:02.250Z,100511.72
2023-05-09T06:52:28.749Z,100494.09
2023-05-09T06:54:55.450Z,100483.31
2023-05-09T06:57:21.780Z,100469.09
2023-05-09T06:59:48.095Z,100483.81
2023-05-09T07:02:14.670Z,100507.16
2023-05-09T07:04:41.056Z,100500.84
2023-05-09T07:07:10.357Z,100486.63
2023-05-09T07:09:36.713Z,100516.06
2023-05-09T07:12:03.503Z,100508.72
2023-05-09T07:14:29.885Z,100545.91
2023-05-09T07:17:05.092Z,100520.09
2023-05-09T07:19:41.211Z,100514.44
2023-05-09T07:22:07.872Z,100542.25
2023-05-09T07:24:34.264Z,100555.31
2023-05-09T07:27:03.455Z,100547.09
2023-05-09T07:29:29.834Z,100596.78
2023-05-09T07:31:56.257Z,100584.38
2023-05-09T07:34:23.812Z,100594.69
2023-05-09T07:36:50.470Z,100573.41
2023-05-09T07:39:16.805Z,100567.50
2023-05-09T07:41:43.164Z,100536.28
2023-05-09T07:44:09.766Z,100582.94
2023-05-09T07:46:38.410Z,100561.66
2023-05-09T07:49:04.765Z,100592.81
2023-05-09T07:51:32.266Z,100620.53
2023-05-09T07:53:58.607Z,100595.56
2023-05-09T07:56:24.949Z,100617.41
2023-05-09T07:58:52.600Z,100605.31
2023-05-09T08:01:20.010Z,100635.13
2023-05-09T08:03:46.390Z,100631.66
2023-05-09T08:06:13.003Z,100580.31
2023-05-09T08:08:39.343Z,100609.31
2023-05-09T08:11:06.103Z,100595.91
2023-05-09T08:13:32.489Z,100578.66
2023-05-09T08:15:59.245Z,100557.91
2023-05-09T08:18:26.462Z,100537.06
2023-05-09T08:20:52.874Z,100531.78
2023-05-09T08:23:19.228Z,100542.34
2023-05-09T08:25:45.721Z,100562.41
2023-05-09T08:28:12.365Z,100556.91
2023-05-09T08:30:39.291Z,100580.56
2023-05-09T08:33:05.921Z,100555.16
2023-05-09T08:35:32.316Z,100579.22
2023-05-09T08:37:58.972Z,100538.22
2023-05-09T08:40:25.379Z,100530.75
2023-05-09T08:42:52.006Z,100539.78
2023-05-09T08:45:18.592Z,100567.28
2023-05-09T08:47:44.940Z,100573.66
2023-05-09T08:50:15.174Z,100599.97
2023-05-09T08:52:41.955Z,100564.38
2023-05-09T08:55:08.360Z,100579.88
2023-05-09T08:57:37.788Z,100579.69
2023-05-09T09:00:10.912Z,100580.00
2023-05-09T09:02:37.363Z,100575.78
2023-05-09T09:05:05.209Z,100569.03
2023-05-09T09:07:32.164Z,100581.38
2023-05-09T09:09:58.524Z,100595.94
2023-05-09T09:12:25.083Z,100627.25
2023-05-09T09:14:53.242Z,100652.44
2023-05-09T09:17:21.108Z,100691.09
2023-05-09T09:19:49.750Z,100690.91
2023-05-09T09:22:17.426Z,100704.09
2023-05-09T09:24:43.768Z,100729.97
2023-05-09T09:27:10.166Z,100749.38
2023-05-09T09:29:38.526Z,100755.63
2023-05-09T09:32:05.841Z,100761.31
2023-05-09T09:34:32.384Z,100759.44
2023-05-09T09:36:58.984Z,100739.59
2023-05-09T09:39:25.368Z,100752.63
2023-05-09T09:41:51.942Z,100760.53
2023-05-09T09:44:19.448Z,100763.78
2023-05-09T09:46:48.905Z,100762.69
2023-05-09T09:49:19.098Z,100765.66
2023-05-09T09:51:45.822Z,100753.97
2023-05-09T09:54:12.616Z,100764.44
2023-05-09T09:56:46.877Z,100772.63
2023-05-09T09:59:17.604Z,100768.31
2023-05-09T10:02:07.397Z,100772.06
2023-05-09T10:04:35.933Z,100778.41
2023-05-09T10:07:06.407Z,100764.50
2023-05-09T10:09:34.038Z,100772.34
2023-05-09T10:12:04.684Z,100765.97
2023-05-09T10:14:34.834Z,100776.63
2023-05-09T10:17:02.512Z,100763.16
2023-05-09T10:19:29.694Z,100748.13
2023-05-09T10:22:04.131Z,100750.91
2023-05-09T10:24:47.634Z,100753.63
2023-05-09T10:27:14.249Z,100754.22
2023-05-09T10:29:51.704Z,100752.75
2023-05-09T10:32:23.421Z,100752.69
2023-05-09T10:34:51.730Z,100740.59
2023-05-09T10:37:18.130Z,100738.97
2023-05-09T10:39:44.670Z,100749.63
2023-05-09T10:42:11.031Z,100740.06
2023-05-09T10:44:37.540Z,100721.16
2023-05-09T10:47:04.242Z,100723.13
2023-05-09T10:49:30.702Z,100733.63
2023-05-09T10:51:57.166Z,100721.28
2023-05-09T10:54:31.946Z,100722.63
2023-05-09T10:56:58.368Z,100713.03
2023-05-09T10:59:37.706Z,100698.50
2023-05-09T11:02:04.914Z,100692.50
2023-05-09T11:04:32.414Z,100690.34
2023-05-09T11:07:00.133Z,100676.31
2023-05-09T11:09:41.172Z,100673.09
2023-05-09T11:12:08.864Z,100682.06
2023-05-09T11:14:38.065Z,100684.16
2023-05-09T11:17:09.001Z,100675.38
2023-05-09T11:19:47.955Z,100665.00
2023-05-09T11:22:15.706Z,100657.78
2023-05-09T11:24:46.802Z,100682.50
2023-05-09T11:27:16.871Z,100662.41
2023-05-09T11:29:44.987Z,100656.88
2023-05-09T11:32:14.359Z,100647.38
2023-05-09T11:34:43.496Z,100638.88
2023-05-09T11:37:11.113Z,100647.38
2023-05-09T11:39:55.769Z,100635.53
2023-05-09T11:42:23.581Z,100630.28
2023-05-09T11:44:49.985Z,100618.16
2023-05-09T11:47:16.799Z,100623.72
2023-05-09T11:49:43.817Z,100618.44
2023-05-09T11:52:10.245Z,100623.53
2023-05-09T11:54:38.919Z,100618.13
2023-05-09T11:57:05.873Z,100615.66
2023-05-09T11:59:33.708Z,100618.84
2023-05-09T12:02:06.510Z,100615.47
2023-05-09T12:04:33.259Z,100614.63
2023-05-09T12:07:00.339Z,100605.81
2023-05-09T12:09:34.044Z,100603.13
2023-05-09T12:12:01.104Z,100596.22
2023-05-09T12:14:31.778Z,100595.06
2023-05-09T12:16:58.427Z,100582.09
2023-05-09T12:19:25.570Z,100580.66
2023-05-09T12:21:58.963Z,100580.66
2023-05-09T12:24:29.184Z,100576.13
2023-05-09T12:26:56.236Z,100571.03
2023-05-09T12:29:22.721Z,100568.16
2023-05-09T12:31:49.189Z,100564.59
2023-05-09T12:34:16.289Z,100566.38
2023-05-09T12:36:51.741Z,100568.91
2023-05-09T12:39:18.499Z,100554.75
2023-05-09T12:42:00.526Z,100558.03
2023-05-09T12:44:29.900Z,100552.00
2023-05-09T12:47:01.114Z,100554.00
2023-05-09T12:49:27.754Z,100553.47
2023-05-09T12:51:54.975Z,100560.22
2023-05-09T12:54:25.788Z,100555.44
2023-05-09T12:56:53.170Z,100551.47
2023-05-09T12:59:24.085Z,100544.56
2023-05-09T13:01:54.501Z,100546.13
2023-05-09T13:04:21.366Z,100541.88
2023-05-09T13:06:56.088Z,100534.78
2023-05-09T13:09:23.022Z,100527.97
2023-05-09T13:11:50.718Z,100529.25
2023-05-09T13:14:17.831Z,100519.69
2023-05-09T13:16:44.454Z,100536.03
2023-05-09T13:19:10.854Z,100514.03
2023-05-09T13:21:37.525Z,100518.22
2023-05-09T13:24:04.351Z,100519.81
2023-05-09T13:26:30.840Z,100505.75
2023-05-09T13:28:57.412Z,100508.50
2023-05-09T13:31:24.039Z,100498.31
2023-05-09T13:33:52.010Z,100497.69
2023-05-09T13:36:18.742Z,100493.50
2023-05-09T13:38:45.732Z,100493.03
2023-05-09T13:41:12.889Z,100495.50
2023-05-09T13:43:39.545Z,100477.59
2023-05-09T13:46:06.124Z,100488.69
2023-05-09T13:48:32.578Z,100480.75
2023-05-09T13:51:00.490Z,100482.59
2023-05-09T13:53:26.838Z,100468.00
2023-05-09T13:55:53.187Z,100480.75
2023-05-09T13:58:19.767Z,100478.66
2023-05-09T14:00:46.250Z,100473.28
2023-05-09T14:03:12.590Z,100461.03
2023-05-09T14:05:39.118Z,100462.41
2023-05-09T14:08:07.930Z,100464.59
2023-05-09T14:10:34.371Z,100460.22
2023-05-09T14:13:00.984Z,100456.06
2023-05-09T14:15:27.494Z,100448.41
2023-05-09T14:17:53.900Z,100445.97
2023-05-09T14:20:20.510Z,100445.22
2023-05-09T14:22:47.040Z,100442.50
2023-05-09T14:25:13.385Z,100440.34
2023-05-09T14:27:39.769Z,100436.47
2023-05-09T14:30:06.745Z,100438.28
2023-05-09T14:32:33.112Z,100424.56
2023-05-09T14:34:59.713Z,100426.84
2023-05-09T14:37:26.099Z,100424.84
2023-05-09T14:39:52.477Z,100408.63
2023-05-09T14:42:19.811Z,100412.63
2023-05-09T14:44:47.197Z,100399.84
2023-05-09T14:47:13.614Z,100406.22
2023-05-09T14:49:40.049Z,100405.63
2023-05-09T14:52:06.414Z,100393.50
2023-05-09T14:54:32.895Z,100390.66
2023-05-09T14:57:02.062Z,100376.91
2023-05-09T14:59:28.532Z,100376.72
2023-05-09T15:01:54.861Z,100375.13
2023-05-09T15:04:21.483Z,100382.81
2023-05-09T15:06:47.818Z,100379.16
2023-05-09T15:09:14.699Z,100380.84
2023-05-09T15:11:47.909Z,100369.53
2023-05-09T15:14:16.300Z,100371.22
2023-05-09T15:16:42.829Z,100366.97
2023-05-09T15:19:09.284Z,100363.16
2023-05-09T15:21:35.920Z,100366.13
2023-05-09T15:24:02.527Z,100359.50
2023-05-09T15:26:29.164Z,100360.00
2023-05-09T15:28:55.525Z,100364.00
2023-05-09T15:31:23.251Z,100357.53
2023-05-09T15:33:49.649Z,100350.53
2023-05-09T15:36:16.483Z,100357.25
2023-05-09T15:38:42.907Z,100342.94
2023-05-09T15:41:09.310Z,100346.28
2023-05-09T15:43:35.685Z,100347.59
2023-05-09T15:46:02.437Z,100335.84
2023-05-09T15:48:28.820Z,100330.38
2023-05-09T15:50:55.749Z,100346.94
2023-05-09T15:53:23.119Z,100326.78
2023-05-09T15:55:49.870Z,100320.31
2023-05-09T15:58:16.474Z,100333.56
2023-05-09T16:00:42.885Z,100326.94
2023-05-09T16:03:09.408Z,100321.31
2023-05-09T16:05:35.895Z,100317.38
2023-05-09T16:08:02.286Z,100303.66
2023-05-09T16:10:28.630Z,100309.56
2023-05-09T16:12:55.116Z,100305.50
2023-05-09T16:15:21.656Z,100302.78
2023-05-09T16:17:48.004Z,100299.72
2023-05-09T16:20:15.142Z,100295.94
2023-05-09T16:22:42.092Z,100301.78
2023-05-09T16:25:08.567Z,100294.13
2023-05-09T16:27:35.048Z,100292.78
2023-05-09T16:30:01.666Z,100295.94
2023-05-09T16:32:28.179Z,100286.41
2023-05-09T16:34:54.609Z,100298.03
2023-05-09T16:37:20.960Z,100293.91
2023-05-09T16:39:47.390Z,100284.16
2023-05-09T16:42:13.796Z,100282.59
2023-05-09T16:44:40.143Z,100285.66
2023-05-09T16:47:06.956Z,100275.09
2023-05-09T16:49:33.569Z,100287.84
2023-05-09T16:52:00.003Z,100289.50
2023-05-09T16:54:26.444Z,100282.16
2023-05-09T16:56:52.866Z,100284.44
2023-05-09T16:59:20.117Z,100275.91
2023-05-09T17:01:47.529Z,100274.22
2023-05-09T17:04:14.239Z,100266.25
2023-05-09T17:06:40.716Z,100278.91
2023-05-09T17:09:07.553Z,100277.78
2023-05-09T17:11:33.962Z,100273.09
2023-05-09T17:14:02.172Z,100260.38
2023-05-09T17:16:28.592Z,100266.56
2023-05-09T17:18:54.995Z,100259.22
2023-05-09T17:21:22.892Z,100256.97
2023-05-09T17:23:49.417Z,100264.44
2023-05-09T17:26:15.861Z,100254.91
2023-05-09T17:28:42.206Z,100250.06
2023-05-09T17:31:08.675Z,100241.50
2023-05-09T17:33:35.093Z,100255.25
2023-05-09T17:36:01.548Z,100243.09
2023-05-09T17:38:28.242Z,100238.13
2023-05-09T17:40:54.663Z,100238.50
2023-05-09T17:43:21.756Z,100246.06
2023-05-09T17:45:48.215Z,100238.38
2023-05-09T17:48:14.670Z,100242.22
2023-05-09T17:50:41.017Z,100236.34
2023-05-09T17:53:09.341Z,100240.25
2023-05-09T17:55:35.872Z,100243.06
2023-05-09T17:58:02.209Z,100236.31
2023-05-09T18:00:29.196Z,100244.66
2023-05-09T18:02:57.819Z,100242.06
2023-05-09T18:05:26.094Z,100245.25
2023-05-09T18:07:53.225Z,100239.41
2023-05-09T18:10:20.458Z,100246.06
2023-05-09T18:12:47.356Z,100241.41
2023-05-09T18:15:13.931Z,100249.13
2023-05-09T18:17:40.432Z,100238.47
2023-05-09T18:20:07.673Z,100235.88
2023-05-09T18:22:34.109Z,100229.31
2023-05-09T18:25:00.676Z,100226.22
2023-05-09T18:27:27.456Z,100226.75
2023-05-09T18:29:54.110Z,100223.34
2023-05-09T18:32:20.710Z,100231.75
2023-05-09T18:34:48.364Z,100224.63
2023-05-09T18:37:14.720Z,100229.13
2023-05-09T18:39:41.089Z,100227.00
2023-05-09T18:42:07.464Z,100215.81
2023-05-09T18:44:33.861Z,100218.78
2023-05-09T18:47:00.455Z,100219.94
2023-05-09T18:49:27.033Z,100216.72
2023-05-09T18:51:53.428Z,100220.09
2023-05-09T18:54:19.997Z,100219.66
2023-05-09T18:56:46.642Z,100221.75
2023-05-09T18:59:16.079Z,100230.63
2023-05-09T19:01:43.938Z,100221.47
2023-05-09T19:04:10.420Z,100225.50
2023-05-09T19:06:36.785Z,100223.59
2023-05-09T19:09:04.460Z,100229.31
2023-05-09T19:11:31.036Z,100221.72
2023-05-09T19:13:57.434Z,100227.31
2023-05-09T19:16:24.866Z,100222.19
2023-05-09T19:18:51.392Z,100222.19
2023-05-09T19:21:18.785Z,100225.59
2023-05-09T19:23:48.971Z,100222.38
2023-05-09T19:26:16.604Z,100221.22
2023-05-09T19:28:43.172Z,100218.88
2023-05-09T19:31:09.705Z,100213.66
2023-05-09T19:33:36.150Z,100215.28
2023-05-09T19:36:02.585Z,100218.22
2023-05-09T19:38:28.977Z,100220.31
2023-05-09T19:40:55.538Z,100213.56
2023-05-09T19:43:21.924Z,100212.19
2023-05-09T19:45:48.309Z,100212.56
2023-05-09T19:48:15.593Z,100210.69
2023-05-09T19:50:42.820Z,100202.72
2023-05-09T19:53:09.246Z,100206.34
2023-05-09T19:55:35.764Z,100203.31
2023-05-09T19:58:02.193Z,100200.09
2023-05-09T20:00:28.608Z,100199.69
2023-05-09T20:02:55.185Z,100200.75
2023-05-09T20:05:21.663Z,100203.66
2023-05-09T20:07:49.063Z,100206.88
2023-05-09T20:10:16.249Z,100205.19
2023-05-09T20:12:43.472Z,100198.34
2023-05-09T20:15:10.398Z,100189.63
2023-05-09T20:17:36.871Z,100191.69
2023-05-09T20:20:04.219Z,100192.25
2023-05-09T20:22:33.658Z,100189.88
2023-05-09T20:25:00.108Z,100185.44
2023-05-09T20:27:26.687Z,100189.59
2023-05-09T20:29:53.156Z,100173.69
2023-05-09T20:32:19.663Z,100177.47
2023-05-09T20:34:46.225Z,100161.56
2023-05-09T20:37:12.883Z,100169.78
2023-05-09T20:39:39.581Z,100160.44
2023-05-09T20:42:06.624Z,100158.91
2023-05-09T20:44:33.473Z,100160.47
2023-05-09T20:46:59.939Z,100163.22
2023-05-09T20:49:27.202Z,100157.50
2023-05-09T20:51:55.185Z,100156.75
2023-05-09T20:54:23.828Z,100153.91
2023-05-09T20:56:50.572Z,100149.72
2023-05-09T20:59:17.264Z,100156.38
2023-05-09T21:01:43.923Z,100151.09
2023-05-09T21:04:10.310Z,100134.78
2023-05-09T21:06:36.741Z,100144.81
2023-05-09T21:09:03.859Z,100152.00
2023-05-09T21:11:30.269Z,100138.19
2023-05-09T21:13:56.692Z,100148.94
2023-05-09T21:16:23.138Z,100147.25
2023-05-09T21:18:49.693Z,100144.84
2023-05-09T21:21:16.067Z,100145.34
2023-05-09T21:23:42.421Z,100135.94
2023-05-09T21:26:09.065Z,100137.09
2023-05-09T21:28:35.572Z,100144.34
2023-05-09T21:31:02.055Z,100143.66
2023-05-09T21:33:29.125Z,100152.72
2023-05-09T21:35:55.563Z,100133.59
2023-05-09T21:38:21.953Z,100139.41
2023-05-09T21:40:50.119Z,100139.06
2023-05-09T21:43:18.004Z,100132.06
2023-05-09T21:45:45.319Z,100125.09
2023-05-09T21:48:11.912Z,100130.00
2023-05-09T21:50:38.357Z,100120.13
2023-05-09T21:53:04.856Z,100125.44
2023-05-09T21:55:31.267Z,100120.97
2023-05-09T21:57:57.659Z,100114.34
2023-05-09T22:00:23.986Z,100115.84
2023-05-09T22:02:50.688Z,100112.28
2023-05-09T22:05:17.093Z,100108.34
2023-05-09T22:07:43.447Z,100097.69
2023-05-09T22:10:10.365Z,100093.34
2023-05-09T22:12:36.716Z,100095.03
2023-05-09T22:15:03.244Z,100095.41
2023-05-09T22:17:29.918Z,100098.28
2023-05-09T22:19:56.407Z,100092.16
2023-05-09T22:22:23.028Z,100093.88
2023-05-09T22:24:49.886Z,100094.97
2023-05-09T22:27:16.288Z,100094.38
2023-05-09T22:29:42.629Z,100094.38
2023-05-09T22:32:09.154Z,100097.38
2023-05-09T22:34:35.563Z,100094.66
2023-05-09T22:37:01.923Z,100076.31
2023-05-09T22:39:28.505Z,100075.44
2023-05-09T22:41:54.873Z,100083.16
2023-05-09T22:44:21.763Z,100081.59
2023-05-09T22:46:48.300Z,100079.91
2023-05-09T22:49:14.657Z,100080.94
2023-05-09T22:51:40.996Z,100072.22
2023-05-09T22:54:07.545Z,100070.16
2023-05-09T22:56:33.881Z,100066.59
2023-05-09T22:59:00.536Z,100064.03
2023-05-09T23:01:27.394Z,100058.56
2023-05-09T23:03:53.739Z,100048.88
2023-05-09T23:06:20.284Z,100055.34
2023-05-09T23:08:46.827Z,100048.28
2023-05-09T23:11:13.170Z,100043.50
2023-05-09T23:13:39.544Z,100041.53
2023-05-09T23:16:06.614Z,100035.72
2023-05-09T23:18:32.977Z,100036.81
2023-05-09T23:20:59.330Z,100030.91
2023-05-09T23:23:25.802Z,100034.50
2023-05-09T23:25:52.201Z,100034.84
2023-05-09T23:28:20.299Z,100025.81
2023-05-09T23:30:46.956Z,100020.69
2023-05-09T23:33:13.417Z,100024.44
2023-05-09T23:35:39.794Z,100014.22
2023-05-09T23:38:06.396Z,100016.25
2023-05-09T23:40:32.775Z,100010.97
2023-05-09T23:42:59.198Z,100006.81
2023-05-09T23:45:26.056Z,99998.44
2023-05-09T23:47:52.570Z,99997.84
2023-05-09T23:50:19.226Z,99989.66
2023-05-09T23:52:49.369Z,99976.72
2023-05-09T23:55:15.727Z,99977.59
2023-05-09T23:57:42.194Z,99975.94
